logo
App data

Brain Spa

Welcome to the Brain Spa, a place where you can learn to maximize your memory, improve your perception abilities, power up your language aptitude, and fine tune your logical thinking skills! 8 different mini-games to play emphasizing four distinct categories of mental abilities: Memory, Perception, Logic, Language.
Store | Hub | SteamDB
Developer: Ubisoft Publisher: Ubisoft
Genre: Casual
Languages: English
Tags: Casual (20)
Category: Single-player, Multi-player, Co-op
Release date: Oct 10, 2008
Price: $9.99
Owners: 0 .. 20,000
Followers: 31
Peak concurrent players yesterday: 1
Playtime total: 00:07 (average) 00:07 (median)

Steam Spy is still in beta, so expect major bugs.

Owners data:

Access restricted.

This feature is only available to users with special access rights. Sorry.

If you want to proceed, you need to register or log in first and then back Steam Spy on Patreon. Look for Indie or Pro pledge.

Don't forget to use the same email as on Steam Spy!

Audience in 2 weeks:

Access restricted.

This feature is only available to users with special access rights. Sorry.

If you want to proceed, you need to register or log in first and then back Steam Spy on Patreon. Look for Indie or Pro pledge.

Don't forget to use the same email as on Steam Spy!

Peak daily concurrent players:

CCU data courtesy of SteamDB. Used with permission.

Hourly concurrent players:

YouTube:

The views data is based on top 50 videos uploaded last week. Actual number of views might be more than the number shown.

The displayed number of videos uploaded yesterday is limited to 50, so if there were more videos uploaded, the number will still show 50.

If the game has commonly used word as its name (like "FEAR" or "Volume") its number of Youtube views might be wrong.

Games similar to this one:

# Game Release date
Price
Score rank
(Userscore / Metascore)
Owners
Players
Playtime (Median)
1 Puppy Dog: Jigsaw Puzzles Jul 19, 2016 $1.99100% (100%)50,000 .. 100,0000.85%03:20 (02:13)
2 Gnomes Garden 2 May 18, 2016 $4.99N/A (N/A)20,000 .. 50,0000%00:00 (00:00)
3 Peggle Nights Oct 15, 2008 $4.9990% (94%/76%)200,000 .. 500,0000.57%00:26 (00:08)
4 Tradewinds Classics Jul 17, 2009 $4.99N/A (N/A)0 .. 20,0000%00:00 (00:00)
5 Legends of Atlantis: Exodus Apr 9, 2012 $6.99N/A (N/A)0 .. 20,0000%00:00 (00:00)
6 Alice's Patchwork Mar 3, 2016 $4.9987% (93%)20,000 .. 50,0000.81%02:18 (01:32)
7 Chuzzle Deluxe Aug 30, 2006 $4.9987% (93%)50,000 .. 100,0000%00:00 (00:00)
8 Princess Maker 2 Refine Sep 28, 2016 $7.9984% (92%)20,000 .. 50,0000%00:00 (00:00)
9 Hidden Object Bundle 4 in 1 Jun 1, 2014 $7.9984% (92%)20,000 .. 50,0001.64%01:14 (00:24)
10 YOU DON’T KNOW JACK Feb 8, 2011 N/A84% (92%/71%)0 .. 20,0000%00:00 (00:00)
11 Bejeweled 2 Deluxe Aug 30, 2006 $4.9980% (91%)50,000 .. 100,0000%00:00 (00:00)
12 Zuma Deluxe Aug 30, 2006 $4.9980% (91%)50,000 .. 100,0002.86%00:23 (00:15)
13 Kitty Cat: Jigsaw Puzzles Jul 18, 2016 $1.9980% (91%)50,000 .. 100,0000.42%03:10 (01:03)
14 Gemini Lost Sep 24, 2009 $6.99N/A (N/A)0 .. 20,0000%00:00 (00:00)
15 Stikbold! A Dodgeball Adventure Apr 1, 2016 $9.9974% (89%)50,000 .. 100,0000%00:00 (00:00)
16 Putt-Putt and Fatty Bear's Activity Pack Mar 25, 1994 $4.99N/A (N/A)20,000 .. 50,0000%00:00 (00:00)
17 Mr Nibbles Forever Apr 29, 2016 $0.99N/A (N/A)0 .. 20,0000%00:00 (00:00)
18 Hidden Object 6-in-1 bundle Mar 16, 2016 $11.9971% (88%)20,000 .. 50,0000%00:00 (00:00)
19 Baseball Mogul 2015 Apr 3, 2014 $4.99N/A (N/A)20,000 .. 50,0001.08%00:01 (00:00)
20 Shufflepuck Cantina Deluxe Dec 6, 2013 $9.9971% (88%)100,000 .. 200,0000%00:00 (00:00)
21 Luxor 3 Nov 13, 2007 $9.9971% (88%)20,000 .. 50,0000%00:00 (00:00)
22 Big Thinkers 1st Grade Aug 18, 2015 $6.99N/A (N/A)0 .. 20,0000%00:00 (00:00)
23 Puzzler World May 28, 2010 $4.9968% (87%)50,000 .. 100,0000%00:00 (00:00)
24 Space Codex May 9, 2016 $0.9966% (86%)50,000 .. 100,0000.61%00:19 (00:12)
25 Among the Heavens Nov 6, 2015 $2.9966% (86%)50,000 .. 100,0000%00:00 (00:00)
26 Brink of Consciousness: The Lonely Hearts Murders Nov 24, 2014 $9.9963% (85%)0 .. 20,0000%00:00 (00:00)
27 Pretty Girls Panic! Dec 20, 2016 $1.9963% (85%)20,000 .. 50,0002.25%01:31 (01:00)
28 Little Racers STREET Feb 6, 2014 $5.9960% (84%/62%)100,000 .. 200,0000%00:00 (00:00)
29 Cranky Cat Jun 5, 2013 $2.99N/A (N/A)0 .. 20,0000%00:00 (00:00)
30 Plant Tycoon Sep 27, 2007 $9.99N/A (N/A)0 .. 20,0000%00:00 (00:00)
31 BasketBelle Dec 9, 2014 $4.9958% (83%)0 .. 20,0000%00:00 (00:00)
32 Combat Wings: Battle of Britain Oct 14, 2009 $4.9955% (82%)100,000 .. 200,0000.56%00:10 (00:03)
33 Urban Trial Freestyle Sep 18, 2013 $6.9955% (82%/58%)100,000 .. 200,0000%00:00 (00:00)
34 My Riding Stables: Life with Horses Mar 27, 2014 $9.9955% (82%)0 .. 20,0000%00:00 (00:00)
35 Venice Deluxe Jun 26, 2007 $4.99N/A (N/A)20,000 .. 50,0000%00:00 (00:00)
36 Crash Dive Jul 6, 2015 $6.9953% (81%)0 .. 20,0000%00:00 (00:00)
37 Rotastic Oct 11, 2012 $9.99N/A (N/A)0 .. 20,0000%00:00 (00:00)
38 Crash Time 3 Nov 25, 2009 $5.9951% (80%)20,000 .. 50,0000%00:00 (00:00)
39 7 Wonders: Treasures of Seven Nov 14, 2008 $9.9951% (80%)20,000 .. 50,0000%00:00 (00:00)
40 Gnomes Garden Dec 18, 2015 $4.9951% (80%)20,000 .. 50,0000.32%00:04 (00:01)
41 Mahjong Destiny Jun 17, 2016 $2.9951% (80%)50,000 .. 100,0001.22%01:52 (01:22)
42 Mystery P.I. - Lost in Los Angeles Jul 27, 2009 $4.99N/A (N/A)20,000 .. 50,0000%00:00 (00:00)
43 Virtual Villagers - The Secret City May 28, 2008 $9.99N/A (N/A)0 .. 20,0000%00:00 (00:00)
44 Typer Shark! Deluxe Aug 30, 2006 $4.9949% (79%)20,000 .. 50,0003.33%00:17 (00:05)
45 The Wizard's Pen Sep 16, 2008 $4.99N/A (N/A)20,000 .. 50,0000%00:00 (00:00)
46 Qvadriga Jun 13, 2014 $19.9947% (78%/72%)20,000 .. 50,0000%00:00 (00:00)
47 Elementary My Dear Majesty! Nov 15, 2013 $0.9943% (76%)20,000 .. 50,0000%00:00 (00:00)
48 Virtual Villagers: The Lost Children Feb 14, 2007 $9.99N/A (N/A)0 .. 20,0000%00:00 (00:00)
49 Sea Legends: Phantasmal Light Collector's Edition Jan 15, 2012 $4.9943% (76%)20,000 .. 50,0000%00:00 (00:00)
50 Pretty Girls Mahjong Solitaire Aug 24, 2015 $4.9941% (75%)20,000 .. 50,0000%00:00 (00:00)
51 Amazing Adventures Around the World Sep 17, 2008 $4.99N/A (N/A)20,000 .. 50,0000%00:00 (00:00)
52 Zombie Solitaire Nov 15, 2013 $8.9939% (74%)0 .. 20,0000%00:00 (00:00)
53 Vehicle Simulator Mar 27, 2009 $2039% (74%)0 .. 20,0000%00:00 (00:00)
54 Cooking Dash Aug 12, 2009 $9.99N/A (N/A)0 .. 20,0000%00:00 (00:00)
55 Toilet Tycoon Mar 1, 2000 $4.9939% (74%)0 .. 20,0000%00:00 (00:00)
56 Ski Region Simulator - Gold Edition Jan 16, 2013 $9.9937% (73%)20,000 .. 50,0000%00:00 (00:00)
57 Evolution Planet: Gold Edition Jul 7, 2016 $4.99N/A (N/A)0 .. 20,0000%00:00 (00:00)
58 Home Design 3D Jan 30, 2015 $9.9937% (73%)20,000 .. 50,0000.93%02:37 (00:52)
59 StuntMANIA Reloaded Nov 13, 2014 $4.9936% (72%)20,000 .. 50,0000%00:00 (00:00)
60 Hotel Dash Suite Success May 6, 2010 $6.99N/A (N/A)0 .. 20,00016.67%01:24 (00:28)
61 aerofly RC 7 Nov 6, 2014 $39.9934% (71%)0 .. 20,0000%00:00 (00:00)
62 Football Mogul 2014 Sep 4, 2013 $4.99N/A (N/A)20,000 .. 50,0000%00:00 (00:00)
63 Mystery P.I. - The Lottery Ticket Oct 16, 2007 $4.99N/A (N/A)20,000 .. 50,0000%00:00 (00:00)
64 Runaway Express Mystery Sep 23, 2014 $6.99N/A (N/A)0 .. 20,0000%00:00 (00:00)
65 Diner Mania Jun 25, 2015 $3.9931% (69%)0 .. 20,0001.67%00:04 (00:01)
66 MiniDrivers Aug 20, 2015 $5.9931% (69%)20,000 .. 50,0000.95%01:20 (00:26)
67 Polaris Sector Mar 22, 2016 $39.9929% (68%/76%)0 .. 20,0000%00:00 (00:00)
68 Chocolatier: Decadence by Design Aug 12, 2009 $9.9928% (67%)0 .. 20,0000%00:00 (00:00)
69 Luxor Jun 10, 2008 $9.99N/A (N/A)0 .. 20,0000%00:00 (00:00)
70 Mystery P.I. - The Vegas Heist Jun 4, 2008 $4.99N/A (N/A)20,000 .. 50,0000%00:00 (00:00)
71 Zooloretto Nov 1, 2011 $2.99N/A (N/A)0 .. 20,0000%00:00 (00:00)
72 PAC-MAN CHAMPIONSHIP EDITION 2 Sep 13, 2016 $12.9924% (64%)20,000 .. 50,0000%00:00 (00:00)
73 Pro Cycling Manager 2014 Jun 19, 2014 $9.9924% (64%)20,000 .. 50,0000%00:00 (00:00)
74 Castle: Never Judge a Book by its Cover Jul 9, 2013 N/A23% (63%)20,000 .. 50,0000%00:00 (00:00)
75 Bridge It + Nov 18, 2013 $6.9923% (63%)20,000 .. 50,0000%00:00 (00:00)
76 City Life 2008 Jul 18, 2008 $9.9923% (63%)20,000 .. 50,0000%00:00 (00:00)
77 Meridian: Age of Invention Jan 28, 2013 $2.9923% (63%)20,000 .. 50,0000%00:00 (00:00)
78 DinerTown Tycoon Sep 30, 2009 $9.99N/A (N/A)0 .. 20,0000%00:00 (00:00)
79 Jane Angel: Templar Mystery Dec 10, 2009 $4.99N/A (N/A)0 .. 20,0000%00:00 (00:00)
80 Air Conflicts: Secret Wars Sep 30, 2011 $5.9919% (60%/65%)50,000 .. 100,0000%00:00 (00:00)
81 Cities in Motion 2 Apr 2, 2013 $19.9918% (59%/72%)500,000 .. 1,000,0000.68%02:15 (03:01)
82 Hacker Evolution: Untold Sep 14, 2010 $0.9917% (58%)200,000 .. 500,0000%00:00 (00:00)
83 Riding Star - Horse Championship! Mar 27, 2014 $9.99N/A (N/A)0 .. 20,0000%00:00 (00:00)
84 Luxor: Quest for the Afterlife Dec 15, 2008 $9.99N/A (N/A)20,000 .. 50,0000%00:00 (00:00)
85 Kumoon : Ballistic Physics Puzzle Nov 10, 2015 $2.9915% (55%)0 .. 20,0000%00:00 (00:00)
86 Mystery P.I. - The New York Fortune Jan 14, 2009 $4.99N/A (N/A)20,000 .. 50,0000%00:00 (00:00)
87 Poker Pretty Girls Battle: Texas Hold'em Oct 21, 2015 $9.9913% (52%)20,000 .. 50,0000%00:00 (00:00)
88 Pacific Storm Allies May 25, 2007 $7.9913% (52%/60%)50,000 .. 100,0000%00:00 (00:00)
89 Speed Kills May 16, 2014 $9.9912% (51%)200,000 .. 500,0000.44%01:07 (01:00)
90 Firefighters 2014 May 21, 2014 $19.9911% (50%)50,000 .. 100,0000%00:00 (00:00)
91 Ludo Supremo Jun 8, 2016 $2.9911% (50%)20,000 .. 50,0001.28%02:25 (02:05)
92 EVEREST VR Aug 2, 2016 $14.9910% (47%)0 .. 20,0000%00:00 (00:00)
93 Shannon Tweed's Attack Of The Groupies Apr 1, 2014 $4.99N/A (N/A)0 .. 20,0000%00:00 (00:00)
94 Lords of Football Apr 5, 2013 $14.998% (45%/52%)20,000 .. 50,0000%00:00 (00:00)
95 Transport Giant Sep 5, 2014 $9.998% (45%)20,000 .. 50,0000%00:00 (00:00)
96 Theme Park Studio Dec 2, 2016 $29.998% (44%)20,000 .. 50,0000%00:00 (00:00)
97 Ship Simulator: Maritime Search and Rescue Jul 1, 2014 $17.997% (42%)20,000 .. 50,0000%00:00 (00:00)
98 Luxor 2 Dec 8, 2005 $9.99N/A (N/A)0 .. 20,0000%00:00 (00:00)
99 Silent Hunter 5: Battle of the Atlantic Mar 2010 $9.997% (41%/62%)50,000 .. 100,0000%00:00 (00:00)
100 Echelon Apr 15, 2001 $3.996% (39%/70%)20,000 .. 50,0000%00:00 (00:00)
101 RECYCLE Sep 3, 2014 $9.995% (37%)20,000 .. 50,0000%00:00 (00:00)
102 Firefighters - The Simulation Sep 18, 2012 $14.99N/A (N/A)0 .. 20,0000%00:00 (00:00)
103 Diner Dash: Hometown Hero Aug 12, 2009 $9.994% (34%)0 .. 20,0000%00:00 (00:00)
104 Industry Empire Jul 30, 2014 $19.994% (31%)20,000 .. 50,0000%00:00 (00:00)
105 Tetris Ultimate Dec 10, 2015 $14.993% (30%)0 .. 20,0000%00:00 (00:00)
106 City Play May 19, 2016 $3.99N/A (N/A)0 .. 20,0000%00:00 (00:00)
107 The Terminal 2 Aug 8, 2014 $4.992% (24%)0 .. 20,0000%00:00 (00:00)
108 G-Ball May 28, 2014 $0.992% (19%)0 .. 20,0000%00:00 (00:00)
109 Airline Tycoon 2 Oct 24, 2011 $9.992% (17%/57%)100,000 .. 200,0000%00:00 (00:00)
110 The Flying Dutchman Sep 12, 2014 $4.991% (3%)0 .. 20,0000%00:00 (00:00)
111 Farm Frenzy 3 Sep 11, 2009 $9.99N/A (N/A)0 .. 20,0000%00:00 (00:00)
112 Discovery! A Seek and Find Adventure Jul 29, 2008 $9.99N/A (N/A)0 .. 20,0000.68%00:08 (00:02)
113 Fantastic 4 In A Row 2 Aug 15, 2016 $1.99N/A (N/A)50,000 .. 100,0000%00:00 (00:00)
114 Bayla Bunny Jun 13, 2016 $2.99N/A (N/A)50,000 .. 100,0000.43%02:05 (00:41)
115 Dessert Storm Oct 23, 2016 $1.99N/A (N/A)20,000 .. 50,0000%00:00 (00:00)
116 Bubble Blowout Oct 24, 2016 $1.99N/A (N/A)20,000 .. 50,0000.89%03:53 (02:35)
117 Barnyard Mahjong 3 Jul 29, 2016 $4.99N/A (N/A)50,000 .. 100,0000.42%01:35 (00:31)
118 Rush for gold: California Mar 9, 2016 $3.99N/A (N/A)50,000 .. 100,0000%00:00 (00:00)
119 The Hidden Dragon Jul 26, 2016 $4.99N/A (N/A)0 .. 20,0000.85%01:15 (00:50)
120 Tropical Fish Shop 2 Feb 10, 2012 $3.99N/A (N/A)0 .. 20,0000%00:00 (00:00)
121 Chainz 2: Relinked Jul 13, 2009 $9.99N/A (N/A)0 .. 20,0000%00:00 (00:00)
122 Solitaire Christmas. Match 2 Cards Dec 24, 2015 $4.99N/A (N/A)20,000 .. 50,0000.36%00:04 (00:01)
123 Them - The Summoning May 16, 2014 $4.99N/A (N/A)0 .. 20,0000%00:00 (00:00)
124 TriJinx: A Kristine Kross Mystery Dec 31, 2007 $6.99N/A (N/A)0 .. 20,0000%00:00 (00:00)
125 Heartomics: Nokori Mar 25, 2016 $1.99N/A (N/A)0 .. 20,0000%00:00 (00:00)

Owners of this game also own:

Access restricted.

This feature is only available to users with special access rights. Sorry.

If you want to proceed, you need to register or log in first and then back Steam Spy on Patreon. Look for Indie or Pro pledge.

Don't forget to use the same email as on Steam Spy!

Playtime distribution:

Access restricted.

This feature is only available to users with special access rights. Sorry.

If you want to proceed, you need to register or log in first and then back Steam Spy on Patreon. Look for Indie or Pro pledge.

Don't forget to use the same email as on Steam Spy!

Playtime (2 weeks):

Access restricted.

This feature is only available to users with special access rights. Sorry.

If you want to proceed, you need to register or log in first and then back Steam Spy on Patreon. Look for Indie or Pro pledge.

Don't forget to use the same email as on Steam Spy!

User reviews:

Login required.

Please register or log in to see this information.